Airfield :
LOGIN :

Register | Disclaimer

   EN    FR    IT 

 










Legend :    VFR   Marginal VFR   IFR   Intensive IFR   Very Intensive IFR
Visi :
Ceiling :
>= 8 km
>= 3000ft
5 to 8 km
1000 to 3000 ft
1500m to 5 km
500 to 1000 ft
800 to 1500m
200 to 500 ft
< 800m
< 200 ft
Symbols :   Thunderstorms  Fog  Heavy snow  Heavy precipitations  Wind > 20 kt
SIGMETs :     Misc.  Thunderstorms  Icing  Turbulence  Mountain Waves  Volcanic Ashes







- Airport Elevation : 699 ft
- IATA code : PAD


EDLP - Paderborn Lippstadt

CURRENT METAR :
  • 180620Z 15007KT 9999 BKN026 01/M01 Q1017

EXPIRED METARs :
  • 180550Z 16007KT 9999 BKN028 01/M01 Q1017
  • 180520Z 16006KT 9999 BKN030 01/M01 Q1017
  • 180450Z 15008KT 9999 BKN030 01/M01 Q1017
  • 180420Z 13005KT 9999 BKN035 01/M01 Q1017
  • 180350Z 12007KT 090V160 9999 BKN035 01/M00 Q1017

TAF TAF EDLP
Valid from the 18 at 06:00 until the 19 at 06:00 UTC


180500Z 1806/1906 16010KT 7000 BKN020
TEMPO 1806/1809 4000 -RASN BKN012
BECMG 1809/1812 VRB03KT
BECMG 1818/1821 BKN012
TEMPO 1821/1824 4000 BR BKN006
BECMG 1900/1903 2500 BR BKN004
PROB30
TEMPO 1903/1906 0400 FG BKN001
No reported NOTAMs for that airfield.
2 SIGMETs reported for the Langen FIR (EDGG) :
 
Severe icing
EDGG SIGMET 2 VALID 180704/180900 EDZF
EDGG LANGEN FIR SEV ICE FCST S OF N5025 AND W OF E00820 1000FT/FL100 STNR WKN=
Severe icing
EDGG SIGMET 1 VALID 180300/180700 EDZF
EDGG LANGEN FIR SEV ICE FCST WI N5128 E00539 - N5115 E00954 - N4909 E00859 - N4714 E00744 - N4903 E00647 - N5128 E00539 1000FT/FL130 MOV SE NC=



MET'MAP, your aeronautical weather chart ! - Copyright ORBIFLY December 2007 - Disclaimer

ORBIFLY MET'MAP TEAM :

Programming & Development : Alexandra Zaïnal
Concept & Development : Baudouin d'Aumeries
Co-Development & Prog : Marc-Olivier Méhu
Technical & hardware support : Manuel Goepfert

Contact : metmap@orbifly.com




SOURCES & CREDITS :

   NOAA